| time (UTC) | temp F | wind direction | speed knots | gust knots | rain 1hr in | rain 24hr in | rain mn in | humidity % | barometer mb |
| 20260507201004 | 47 | 287 | 5.2 | 10.4 | 0.00 | 0.22 | 0.00 | 50 | 1005.4 |
| 20260507200504 | 47 | 285 | 3.5 | 7.8 | 0.00 | 0.22 | 0.00 | 51 | 1005.3 |
| 20260507195504 | 47 | 293 | 2.6 | 10.4 | 0.00 | 0.22 | 0.00 | 52 | 1005.3 |
| 20260507195004 | 46 | 316 | 3.5 | 8.7 | 0.00 | 0.22 | 0.00 | 49 | 1005.3 |
| 20260507194503 | 46 | 285 | 4.3 | 14.8 | 0.00 | 0.23 | 0.00 | 49 | 1005.3 |
| 20260507193004 | 47 | 293 | 4.3 | 12.2 | 0.00 | 0.23 | 0.00 | 50 | 1005.4 |
| 20260507192003 | 48 | 286 | 4.3 | 13.9 | 0.00 | 0.24 | 0.00 | 50 | 1005.4 |
| 20260507191504 | 49 | 278 | 7.0 | 14.8 | 0.00 | 0.24 | 0.00 | 49 | 1005.4 |
| 20260507191004 | 49 | 270 | 6.1 | 14.8 | 0.00 | 0.24 | 0.00 | 51 | 1005.5 |
| 20260507190504 | 49 | 321 | 1.7 | 4.3 | 0.00 | 0.24 | 0.00 | 51 | 1005.4 |
| 20260507184004 | 49 | 281 | 7.0 | 18.2 | 0.00 | 0.24 | 0.00 | 48 | 1005.3 |
| 20260507183504 | 49 | 326 | 6.1 | 14.8 | 0.00 | 0.25 | 0.00 | 50 | 1005.4 |
| 20260507183004 | 48 | 338 | 4.3 | 13.0 | 0.00 | 0.25 | 0.00 | 52 | 1005.1 |
| 20260507181504 | 47 | 307 | 3.5 | 7.0 | 0.00 | 0.26 | 0.00 | 55 | 1005.3 |
| 20260507180504 | 47 | 348 | 4.3 | 11.3 | 0.00 | 0.27 | 0.00 | 53 | 1005.4 |
| 20260507175503 | 47 | 300 | 2.6 | 7.8 | 0.00 | 0.28 | 0.00 | 57 | 1005.2 |
| 20260507175004 | 47 | 319 | 2.6 | 10.4 | 0.00 | 0.29 | 0.00 | 57 | 1005.2 |
| 20260507174004 | 47 | 300 | 1.7 | 8.7 | 0.00 | 0.31 | 0.00 | 57 | 1005.4 |
| 20260507173004 | 47 | 319 | 5.2 | 8.7 | 0.00 | 0.34 | 0.00 | 56 | 1005.3 |
| 20260507172504 | 47 | 275 | 2.6 | 7.8 | 0.00 | 0.35 | 0.00 | 58 | 1005.4 |
| 20260507171503 | 48 | 303 | 5.2 | 7.8 | 0.00 | 0.37 | 0.00 | 60 | 1005.4 |
| 20260507171004 | 47 | 297 | 3.5 | 7.8 | 0.00 | 0.38 | 0.00 | 62 | 1005.4 |
| 20260507170504 | 47 | 312 | 1.7 | 8.7 | 0.00 | 0.40 | 0.00 | 63 | 1005.4 |
| 20260507170004 | 47 | 296 | 1.7 | 7.8 | 0.00 | 0.42 | 0.00 | 64 | 1005.5 |
| 20260507164504 | 47 | 249 | 8.7 | 20.0 | 0.00 | 0.46 | 0.00 | 62 | 1005.8 |
| 20260507164004 | 47 | 300 | 5.2 | 10.4 | 0.00 | 0.47 | 0.00 | 67 | 1005.8 |
| 20260507163504 | 46 | 287 | 2.6 | 7.0 | 0.00 | 0.48 | 0.00 | 65 | 1005.8 |
| 20260507163004 | 46 | 252 | 7.0 | 13.0 | 0.00 | 0.49 | 0.00 | 63 | 1006.0 |
| 20260507162504 | 46 | 290 | 4.3 | 10.4 | 0.00 | 0.50 | 0.00 | 66 | 1006.0 |
| 20260507162004 | 46 | 296 | 4.3 | 8.7 | 0.00 | 0.51 | 0.00 | 65 | 1006.1 |
| 20260507161503 | 46 | 276 | 6.1 | 10.4 | 0.00 | 0.52 | 0.00 | 65 | 1006.2 |
| 20260507160004 | 46 | 290 | 5.2 | 12.2 | 0.00 | 0.54 | 0.00 | 68 | 1006.1 |
| 20260507155004 | 46 | 287 | 2.6 | 8.7 | 0.00 | 0.55 | 0.00 | 72 | 1006.1 |
| 20260507154005 | 45 | 260 | 5.2 | 11.3 | 0.00 | 0.56 | 0.00 | 70 | 1006.2 |
| 20260507151504 | 42 | 257 | 1.7 | 6.1 | 0.00 | 0.58 | 0.00 | 79 | 1006.0 |
| 20260507145004 | 43 | 286 | 2.6 | 8.7 | 0.00 | 0.60 | 0.00 | 80 | 1006.0 |
| 20260507144504 | 43 | 266 | 4.3 | 7.8 | 0.00 | 0.60 | 0.00 | 82 | 1006.0 |
| 20260507143504 | 43 | 247 | 1.7 | 8.7 | 0.00 | 0.61 | 0.00 | 85 | 1006.0 |
| 20260507143004 | 44 | 219 | 5.2 | 10.4 | 0.00 | 0.61 | 0.00 | 86 | 1006.0 |
| 20260507142004 | 43 | 212 | 5.2 | 10.4 | 0.00 | 0.62 | 0.00 | 91 | 1006.0 |
| 20260507141504 | 42 | 247 | 4.3 | 11.3 | 0.00 | 0.62 | 0.00 | 93 | 1006.0 |
| 20260507140504 | 42 | 226 | 2.6 | 8.7 | 0.00 | 0.64 | 0.00 | 95 | 1006.0 |
| 20260507134503 | 41 | 276 | 2.6 | 10.4 | 0.00 | 0.67 | 0.00 | 96 | 1006.2 |
| 20260507133504 | 41 | 248 | 4.3 | 7.8 | 0.00 | 0.68 | 0.00 | 97 | 1006.1 |
| 20260507132504 | 40 | 268 | 2.6 | 5.2 | 0.00 | 0.69 | 0.00 | 97 | 1006.3 |
| 20260507132004 | 40 | 255 | 4.3 | 6.1 | 0.00 | 0.69 | 0.00 | 97 | 1006.3 |
| 20260507131004 | 40 | 238 | 2.6 | 5.2 | 0.00 | 0.70 | 0.00 | 97 | 1006.4 |
| 20260507130004 | 39 | 267 | 0.9 | 2.6 | 0.00 | 0.71 | 0.00 | 97 | 1006.3 |
| 20260507125005 | 39 | 249 | 1.7 | 2.6 | 0.00 | 0.73 | 0.00 | 96 | 1006.4 |
| 20260507124005 | 39 | 249 | 0.0 | 0.9 | 0.00 | 0.75 | 0.00 | 97 | 1006.3 |
| 20260507123504 | 39 | 239 | 0.0 | 0.9 | 0.00 | 0.76 | 0.00 | 96 | 1006.3 |
| 20260507121004 | 39 | 251 | 0.9 | 2.6 | 0.00 | 0.79 | 0.00 | 97 | 1006.3 |
| 20260507120504 | 39 | 268 | 1.7 | 2.6 | 0.00 | 0.79 | 0.00 | 97 | 1006.3 |
| 20260507120004 | 39 | 255 | 0.9 | 1.7 | 0.00 | 0.80 | 0.00 | 97 | 1006.4 |
| 20260507115005 | 39 | 257 | 0.9 | 4.3 | 0.00 | 0.80 | 0.00 | 97 | 1006.3 |
| 20260507114504 | 38 | 251 | 1.7 | 2.6 | 0.00 | 0.80 | 0.00 | 97 | 1006.4 |
| 20260507114004 | 38 | 232 | 0.9 | 2.6 | 0.00 | 0.80 | 0.00 | 97 | 1006.4 |
| 20260507113004 | 38 | 258 | 0.9 | 1.7 | 0.00 | 0.81 | 0.00 | 97 | 1006.4 |
| 20260507111004 | 38 | 240 | 0.0 | 0.9 | 0.00 | 0.81 | 0.00 | 97 | 1006.3 |
| 20260507110005 | 38 | 231 | 0.9 | 0.9 | 0.00 | 0.82 | 0.00 | 97 | 1006.3 |
| 20260507104505 | 38 | 253 | 1.7 | 2.6 | 0.00 | 0.82 | 0.00 | 97 | 1006.3 |
| 20260507104004 | 38 | 233 | 0.9 | 2.6 | 0.00 | 0.82 | 0.00 | 97 | 1006.2 |
| 20260507103504 | 37 | 249 | 1.7 | 2.6 | 0.00 | 0.82 | 0.00 | 97 | 1006.2 |
| 20260507101504 | 37 | 253 | 0.9 | 1.7 | 0.00 | 0.82 | 0.00 | 97 | 1006.2 |
| 20260507094504 | 37 | 255 | 1.7 | 2.6 | 0.00 | 0.83 | 0.00 | 98 | 1006.0 |
| 20260507093504 | 37 | 247 | 0.0 | 1.7 | 0.00 | 0.83 | 0.00 | 98 | 1005.7 |
| 20260507092504 | 37 | 160 | 0.0 | 0.0 | 0.00 | 0.83 | 0.00 | 97 | 1005.5 |
| 20260507092003 | 37 | 195 | 0.0 | 1.7 | 0.00 | 0.83 | 0.00 | 98 | 1005.5 |
| 20260507091505 | 37 | 226 | 1.7 | 2.6 | 0.00 | 0.83 | 0.00 | 98 | 1005.6 |
| 20260507091004 | 37 | 218 | 0.9 | 2.6 | 0.00 | 0.83 | 0.00 | 98 | 1005.7 |
| 20260507090005 | 37 | 247 | 0.9 | 2.6 | 0.00 | 0.84 | 0.00 | 98 | 1006.0 |
| 20260507085004 | 37 | 212 | 1.7 | 2.6 | 0.00 | 0.84 | 0.00 | 98 | 1006.2 |
| 20260507084504 | 37 | 253 | 0.9 | 2.6 | 0.00 | 0.85 | 0.00 | 98 | 1006.1 |
| 20260507082504 | 38 | 244 | 0.0 | 0.9 | 0.00 | 0.86 | 0.00 | 98 | 1006.0 |
| 20260507081004 | 38 | 241 | 0.0 | 0.9 | 0.00 | 0.87 | 0.00 | 98 | 1006.0 |
| 20260507080504 | 38 | 241 | 0.0 | 0.0 | 0.00 | 0.87 | 0.00 | 98 | 1005.9 |
| 20260507080004 | 38 | 241 | 0.0 | 0.0 | 0.00 | 0.87 | 0.00 | 98 | 1006.0 |
| 20260507075505 | 38 | 241 | 0.0 | 0.0 | 0.00 | 0.87 | 0.00 | 98 | 1006.0 |
| 20260507074504 | 38 | 241 | 0.0 | 0.0 | 0.00 | 0.87 | 0.00 | 98 | 1006.0 |
| 20260507073504 | 38 | 241 | 0.0 | 0.0 | 0.00 | 0.87 | 0.00 | 98 | 1005.8 |
| 20260507073004 | 38 | 241 | 0.0 | 0.0 | 0.00 | 0.87 | 0.00 | 98 | 1005.8 |
| 20260507072505 | 38 | 241 | 0.0 | 0.0 | 0.00 | 0.87 | 0.00 | 98 | 1005.7 |
| 20260507071504 | 38 | 241 | 0.0 | 0.0 | 0.00 | 0.87 | 0.00 | 98 | 1005.6 |
| 20260507071005 | 38 | 241 | 0.0 | 0.0 | 0.00 | 0.87 | 0.00 | 98 | 1005.7 |
| 20260507070009 | 38 | 241 | 0.0 | 0.0 | 0.00 | 0.87 | 0.00 | 98 | 1005.8 |
| 20260507065504 | 38 | 241 | 0.0 | 0.0 | 0.00 | 0.87 | 0.00 | 98 | 1005.8 |
| 20260507064504 | 38 | 241 | 0.0 | 0.0 | 0.00 | 0.88 | 0.00 | 98 | 1005.8 |
| 20260507062504 | 38 | 25 | 0.0 | 0.0 | 0.00 | 0.89 | 0.00 | 98 | 1005.9 |
| 20260507062004 | 38 | 25 | 0.0 | 0.0 | 0.00 | 0.89 | 0.00 | 98 | 1005.8 |
| 20260507061504 | 38 | 25 | 0.0 | 0.0 | 0.00 | 0.89 | 0.00 | 98 | 1005.7 |
| 20260507061005 | 38 | 25 | 0.0 | 0.0 | 0.00 | 0.89 | 0.00 | 98 | 1005.7 |
| 20260507060004 | 38 | 24 | 0.0 | 0.0 | 0.00 | 0.89 | 0.00 | 98 | 1005.8 |
| 20260507055505 | 38 | 25 | 0.0 | 0.0 | 0.00 | 0.90 | 0.00 | 98 | 1005.7 |
| 20260507055005 | 38 | 25 | 0.0 | 0.0 | 0.00 | 0.91 | 0.00 | 98 | 1005.8 |
| 20260507054505 | 38 | 24 | 0.0 | 0.0 | 0.00 | 0.92 | 0.00 | 98 | 1006.0 |
| 20260507053005 | 38 | 25 | 0.0 | 0.0 | 0.00 | 0.94 | 0.00 | 98 | 1006.3 |
| 20260507052504 | 38 | 24 | 0.0 | 0.0 | 0.00 | 0.94 | 0.00 | 98 | 1006.3 |
| 20260507050505 | 39 | 24 | 0.0 | 0.0 | 0.00 | 0.97 | 0.00 | 98 | 1006.5 |
| 20260507045004 | 39 | 24 | 0.0 | 0.9 | 0.00 | 0.97 | 0.00 | 98 | 1006.4 |
| 20260507044504 | 39 | 335 | 0.0 | 0.0 | 0.00 | 0.98 | 0.00 | 98 | 1006.6 |
| 20260507044004 | 39 | 335 | 0.0 | 0.0 | 0.00 | 0.98 | 0.00 | 98 | 1006.7 |
| 20260507043504 | 39 | 335 | 0.0 | 0.0 | 0.00 | 0.98 | 0.00 | 98 | 1006.6 |
| 20260507043004 | 39 | 335 | 0.0 | 0.0 | 0.00 | 0.98 | 0.00 | 98 | 1006.6 |
| 20260507041503 | 39 | 335 | 0.0 | 0.0 | 0.00 | 1.00 | 0.00 | 97 | 1006.6 |
| 20260507040504 | 40 | 335 | 0.0 | 0.0 | 0.00 | 1.01 | 0.00 | 97 | 1006.7 |
| 20260507040004 | 40 | 335 | 0.0 | 2.6 | 0.00 | 1.02 | 0.00 | 98 | 1006.6 |
| 20260507035004 | 40 | 349 | 0.9 | 2.6 | 0.00 | 1.05 | 1.02 | 98 | 1006.7 |
| 20260507033504 | 40 | 350 | 1.7 | 2.6 | 0.00 | 1.08 | 1.02 | 98 | 1006.8 |
| 20260507032004 | 40 | 300 | 0.9 | 2.6 | 0.00 | 1.08 | 1.02 | 98 | 1006.7 |
| 20260507031504 | 40 | 328 | 0.0 | 1.7 | 0.00 | 1.08 | 1.02 | 98 | 1006.6 |
| 20260507030004 | 40 | 315 | 0.0 | 0.9 | 0.01 | 1.09 | 1.02 | 98 | 1006.5 |
| 20260507025004 | 40 | 303 | 0.0 | 1.7 | 0.02 | 1.10 | 1.02 | 98 | 1006.5 |
| 20260507024004 | 40 | 37 | 0.0 | 0.9 | 0.03 | 1.10 | 1.02 | 98 | 1006.4 |
| 20260507023504 | 40 | 320 | 0.9 | 2.6 | 0.04 | 1.10 | 1.02 | 98 | 1006.6 |
| 20260507023004 | 41 | 93 | 0.9 | 1.7 | 0.04 | 1.10 | 1.02 | 98 | 1006.5 |
| 20260507022004 | 41 | 346 | 0.9 | 4.3 | 0.05 | 1.10 | 1.02 | 98 | 1007.0 |
| 20260507021504 | 41 | 293 | 0.9 | 2.6 | 0.05 | 1.10 | 1.02 | 98 | 1007.0 |
| 20260507020504 | 41 | 328 | 0.0 | 0.9 | 0.05 | 1.09 | 1.01 | 98 | 1006.9 |
| 20260507020004 | 41 | 335 | 0.0 | 0.0 | 0.05 | 1.09 | 1.01 | 98 | 1006.8 |
| 20260507014504 | 41 | 345 | 0.0 | 0.9 | 0.06 | 1.08 | 1.00 | 98 | 1006.8 |
| 20260507012503 | 41 | 351 | 0.9 | 2.6 | 0.04 | 1.05 | 0.97 | 98 | 1006.7 |
| 20260507011004 | 41 | 14 | 0.9 | 2.6 | 0.03 | 1.04 | 0.96 | 98 | 1006.4 |
| 20260507005503 | 41 | 323 | 0.0 | 0.9 | 0.03 | 1.03 | 0.95 | 98 | 1006.2 |
| 20260507003504 | 41 | 359 | 0.0 | 2.6 | 0.03 | 1.02 | 0.94 | 98 | 1005.9 |
| 20260507002503 | 41 | 322 | 0.0 | 0.0 | 0.02 | 1.01 | 0.93 | 98 | 1005.7 |
| 20260506235503 | 41 | 345 | 0.0 | 1.7 | 0.01 | 1.00 | 0.92 | 97 | 1005.3 |
| 20260506235003 | 41 | 316 | 0.0 | 1.7 | 0.01 | 1.00 | 0.92 | 97 | 1005.4 |
| 20260506234504 | 41 | 337 | 0.9 | 2.6 | 0.01 | 1.00 | 0.92 | 97 | 1005.4 |
| 20260506233003 | 41 | 134 | 0.0 | 0.9 | 0.00 | 0.99 | 0.91 | 97 | 1005.5 |
| 20260506232503 | 41 | 294 | 0.0 | 1.7 | 0.00 | 0.99 | 0.91 | 97 | 1005.4 |
| 20260506231503 | 41 | 16 | 0.9 | 5.2 | 0.00 | 0.99 | 0.91 | 97 | 1005.5 |
| 20260506230003 | 41 | 11 | 0.9 | 2.6 | 0.00 | 0.99 | 0.91 | 97 | 1005.5 |
| 20260506225503 | 41 | 2 | 0.0 | 1.7 | 0.00 | 0.99 | 0.91 | 97 | 1005.3 |
| 20260506225003 | 41 | 354 | 0.9 | 4.3 | 0.01 | 0.99 | 0.91 | 97 | 1005.3 |
| 20260506224503 | 41 | 359 | 0.9 | 2.6 | 0.01 | 0.99 | 0.91 | 97 | 1005.2 |
| 20260506223503 | 41 | 347 | 0.9 | 1.7 | 0.01 | 0.99 | 0.91 | 97 | 1005.0 |
| 20260506223003 | 41 | 14 | 1.7 | 2.6 | 0.01 | 0.99 | 0.91 | 97 | 1005.3 |
| 20260506222003 | 41 | 336 | 0.9 | 4.3 | 0.02 | 0.99 | 0.91 | 97 | 1005.2 |
| 20260506221003 | 42 | 309 | 0.9 | 2.6 | 0.03 | 0.99 | 0.91 | 97 | 1005.3 |
| 20260506215503 | 42 | 54 | 0.9 | 2.6 | 0.04 | 0.99 | 0.91 | 97 | 1005.1 |
| 20260506214503 | 41 | 338 | 0.0 | 0.9 | 0.05 | 0.98 | 0.90 | 97 | 1005.1 |
| 20260506213503 | 41 | 332 | 0.9 | 2.6 | 0.06 | 0.98 | 0.90 | 97 | 1005.2 |
| 20260506212004 | 41 | 351 | 1.7 | 2.6 | 0.07 | 0.97 | 0.89 | 97 | 1005.2 |
| 20260506211003 | 41 | 336 | 0.9 | 2.6 | 0.08 | 0.97 | 0.88 | 97 | 1005.2 |
| 20260506210003 | 42 | 2 | 0.9 | 2.6 | 0.07 | 1.00 | 0.87 | 97 | 1005.1 |
| 20260506205003 | 42 | 343 | 0.0 | 1.7 | 0.06 | 0.99 | 0.86 | 97 | 1005.1 |
| 20260506204503 | 42 | 327 | 0.9 | 2.6 | 0.06 | 0.98 | 0.85 | 97 | 1005.0 |
| 20260506202503 | 42 | 264 | 0.0 | 2.6 | 0.03 | 0.95 | 0.82 | 97 | 1004.6 |
| 20260506202003 | 42 | 351 | 0.9 | 2.6 | 0.04 | 0.95 | 0.82 | 97 | 1004.5 |